METAR

METAR LDZA 231330Z VRB01KT CAVOK 26/10 Q1018 NOSIG =
METAR LDSP 231330Z 22011KT CAVOK 27/11 Q1016 NOSIG=
METAR LDDU 231330Z 27010KT 240V310 CAVOK 25/10 Q1017 NOSIG =
METAR LDZD 231330Z 26012KT 230V300 9999 FEW060 29/08 Q1017 NOSIG =
METAR LDPL 231330Z 25010KT 210V280 CAVOK 28/12 Q1017 NOSIG=
METAR LDOS 231400Z VRB05KT CAVOK 25/09 Q1018=
METAR LDSB 231300Z 23006KT 180V270 CAVOK 25/07 Q1019=
METAR LDRI 231400Z 13006KT 060V190 CAVOK 27/12 Q1017=

TAF

TAF LDZA 231125Z 2312/2412 VRB02KT CAVOK
                 TX28/2411Z TN12/2404Z=
TAF LDSP 231125Z 2312/2412 23010KT CAVOK
                 TX29/2411Z TN18/2404Z
           BECMG 2316/2318 31008KT
           BECMG 2409/2411 23008KT=
TAF LDDU 231125Z 2312/2412 29012KT CAVOK
                 TX28/2411Z TN20/2404Z
           BECMG 2318/2320 02010KT
           BECMG 2408/2410 24008KT=
TAF LDZD 231125Z 2312/2412 30012KT CAVOK
                 TX29/2411Z TN13/2404Z
           BECMG 2317/2319 VRB02KT
           BECMG 2409/2411 30008KT=
TAF LDPL 231125Z 2312/2412 27010KT CAVOK
                 TX28/2411Z TN15/2404Z
           BECMG 2316/2318 VRB02KT
           BECMG 2410/2412 27008KT=
TAF LDOS 231125Z 2312/2412 VRB02KT CAVOK
                 TX28/2411Z TN10/2404Z=
TAF LDSB 231125Z 2312/2412 22008KT CAVOK
                 TX26/2313Z TN19/2403Z
           BECMG 2313/2315 32010KT
           BECMG 2320/2322 VRB02KT
           BECMG 2409/2411 22008KT=
TAF LDRI 231125Z 2312/2412 VRB02KT CAVOK
                 TX27/2313Z TN17/2303Z=

SIGMET

AIRMET

Ukoliko se brzina i smjer vjetra ne mogu odrediti zbog privremenog kvara sustava/indikatora,
informacija o vjetru u METAR izvješću bit će prikazana kao "/////KT".

 

         

      Politika MET podataka      

 

Disclaimer

 

In case of temporary system/sensor failure, wind speed and direction data will be represented as "/////KT" in METAR report.